createdAt,value
2023-01-19T00:00:57.207Z,1.80
2023-01-19T00:03:29.112Z,1.80
2023-01-19T00:05:56.483Z,1.80
2023-01-19T00:08:23.641Z,1.80
2023-01-19T00:10:51.391Z,1.80
2023-01-19T00:13:18.896Z,1.90
2023-01-19T00:15:46.294Z,1.90
2023-01-19T00:18:13.408Z,1.90
2023-01-19T00:20:41.368Z,1.90
2023-01-19T00:23:09.497Z,1.90
2023-01-19T00:25:42.687Z,1.90
2023-01-19T00:28:15.433Z,2.20
2023-01-19T00:30:43.211Z,1.90
2023-01-19T00:33:14.588Z,1.90
2023-01-19T00:35:45.022Z,1.90
2023-01-19T00:38:13.197Z,1.90
2023-01-19T00:40:40.522Z,2.00
2023-01-19T00:43:07.617Z,2.00
2023-01-19T00:45:35.280Z,2.00
2023-01-19T00:48:02.852Z,2.00
2023-01-19T00:50:31.747Z,2.00
2023-01-19T00:53:02.581Z,2.00
2023-01-19T00:55:31.663Z,2.00
2023-01-19T00:57:59.317Z,1.90
2023-01-19T01:00:26.707Z,2.00
2023-01-19T01:02:54.146Z,2.00
2023-01-19T01:05:22.258Z,2.00
2023-01-19T01:07:49.902Z,2.00
2023-01-19T01:10:18.893Z,2.00
2023-01-19T01:13:20.478Z,2.00
2023-01-19T01:15:34.722Z,2.00
2023-01-19T01:18:01.809Z,2.00
2023-01-19T01:20:30.502Z,2.00
2023-01-19T01:22:58.230Z,2.00
2023-01-19T01:25:27.369Z,2.00
2023-01-19T01:27:55.450Z,2.00
2023-01-19T01:30:23.588Z,2.00
2023-01-19T01:32:50.832Z,2.00
2023-01-19T01:35:18.239Z,2.10
2023-01-19T01:37:45.309Z,2.00
2023-01-19T01:40:15.274Z,2.00
2023-01-19T01:42:42.615Z,2.00
2023-01-19T01:45:33.535Z,2.00
2023-01-19T01:48:10.066Z,2.00
2023-01-19T01:51:03.952Z,2.00
2023-01-19T01:53:34.064Z,2.00
2023-01-19T01:56:05.683Z,2.00
2023-01-19T01:58:33.956Z,2.00
2023-01-19T02:01:20.336Z,2.00
2023-01-19T02:03:47.467Z,2.00
2023-01-19T02:06:15.182Z,2.10
2023-01-19T02:09:16.234Z,2.10
2023-01-19T02:12:02.110Z,2.00
2023-01-19T02:14:29.162Z,2.00
2023-01-19T02:16:56.664Z,2.00
2023-01-19T02:19:29.631Z,2.00
2023-01-19T02:22:16.392Z,2.00
2023-01-19T02:24:43.848Z,2.00
2023-01-19T02:27:12.591Z,2.00
2023-01-19T02:29:40.080Z,2.00
2023-01-19T02:32:07.811Z,1.90
2023-01-19T02:34:35.694Z,1.90
2023-01-19T02:37:14.874Z,2.00
2023-01-19T02:39:53.072Z,2.00
2023-01-19T02:42:33.226Z,1.90
2023-01-19T02:45:00.850Z,2.00
2023-01-19T02:47:36.986Z,1.90
2023-01-19T02:50:04.826Z,1.90
2023-01-19T02:52:32.235Z,1.90
2023-01-19T02:55:05.339Z,1.90
2023-01-19T02:57:40.001Z,1.90
2023-01-19T03:00:36.724Z,1.90
2023-01-19T03:03:30.857Z,2.00
2023-01-19T03:06:08.808Z,2.00
2023-01-19T03:08:52.956Z,1.90
2023-01-19T03:11:20.580Z,1.90
2023-01-19T03:13:56.599Z,1.90
2023-01-19T03:16:43.069Z,1.90
2023-01-19T03:19:30.045Z,1.90
2023-01-19T03:22:11.263Z,1.90
2023-01-19T03:24:42.224Z,1.90
2023-01-19T03:27:15.037Z,1.90
2023-01-19T03:29:50.838Z,1.90
2023-01-19T03:32:21.845Z,1.90
2023-01-19T03:34:51.628Z,1.80
2023-01-19T03:37:21.298Z,1.80
2023-01-19T03:39:48.790Z,1.90
2023-01-19T03:42:16.749Z,1.90
2023-01-19T03:44:45.445Z,1.90
2023-01-19T03:47:15.041Z,1.90
2023-01-19T03:49:45.316Z,1.90
2023-01-19T03:52:12.964Z,1.80
2023-01-19T03:54:41.094Z,1.90
2023-01-19T03:57:08.679Z,1.90
2023-01-19T03:59:36.456Z,1.90
2023-01-19T04:02:03.636Z,1.90
2023-01-19T04:04:30.994Z,1.90
2023-01-19T04:06:58.035Z,1.90
2023-01-19T04:09:25.778Z,1.80
2023-01-19T04:11:53.037Z,1.80
2023-01-19T04:14:20.306Z,1.80
2023-01-19T04:16:47.373Z,1.90
2023-01-19T04:19:15.162Z,1.80
2023-01-19T04:21:42.427Z,1.80
2023-01-19T04:24:10.744Z,1.90
2023-01-19T04:26:37.811Z,1.90
2023-01-19T04:29:05.527Z,1.90
2023-01-19T04:31:33.026Z,2.00
2023-01-19T04:34:00.376Z,2.00
2023-01-19T04:36:28.231Z,2.00
2023-01-19T04:38:56.611Z,2.00
2023-01-19T04:41:23.676Z,2.00
2023-01-19T04:43:50.989Z,2.10
2023-01-19T04:46:18.288Z,2.00
2023-01-19T04:48:45.990Z,2.10
2023-01-19T04:51:13.052Z,2.10
2023-01-19T04:53:40.474Z,2.10
2023-01-19T04:56:07.682Z,2.10
2023-01-19T04:58:35.203Z,2.00
2023-01-19T05:01:02.218Z,2.10
2023-01-19T05:03:29.659Z,2.10
2023-01-19T05:05:56.803Z,2.10
2023-01-19T05:08:24.650Z,2.20
2023-01-19T05:10:51.816Z,2.10
2023-01-19T05:13:19.602Z,2.10
2023-01-19T05:15:46.736Z,2.20
2023-01-19T05:18:14.080Z,2.20
2023-01-19T05:20:41.261Z,2.20
2023-01-19T05:23:08.655Z,2.20
2023-01-19T05:25:35.957Z,2.30
2023-01-19T05:28:04.026Z,2.20
2023-01-19T05:30:31.457Z,2.30
2023-01-19T05:32:59.169Z,2.30
2023-01-19T05:35:35.582Z,2.30
2023-01-19T05:38:04.193Z,2.30
2023-01-19T05:40:31.374Z,2.30
2023-01-19T05:43:01.958Z,2.30
2023-01-19T05:45:29.389Z,2.30
2023-01-19T05:47:57.129Z,2.30
2023-01-19T05:50:24.236Z,2.40
2023-01-19T05:52:55.002Z,2.30
2023-01-19T05:55:22.262Z,2.40
2023-01-19T05:57:49.781Z,2.40
2023-01-19T06:00:17.570Z,2.40
2023-01-19T06:02:46.636Z,2.30
2023-01-19T06:05:13.781Z,2.30
2023-01-19T06:07:41.459Z,2.30
2023-01-19T06:10:09.338Z,2.30
2023-01-19T06:12:39.189Z,2.30
2023-01-19T06:15:06.766Z,2.30
2023-01-19T06:17:34.160Z,2.20
2023-01-19T06:20:01.320Z,2.20
2023-01-19T06:22:28.751Z,2.80
2023-01-19T06:24:55.868Z,2.20
2023-01-19T06:27:23.256Z,2.20
2023-01-19T06:29:50.427Z,2.20
2023-01-19T06:32:18.036Z,2.30
2023-01-19T06:34:48.003Z,2.20
2023-01-19T06:37:16.791Z,2.30
2023-01-19T06:39:45.579Z,2.30
2023-01-19T06:42:12.993Z,2.20
2023-01-19T06:44:47.389Z,2.20
2023-01-19T06:47:16.330Z,2.20
2023-01-19T06:49:43.955Z,2.20
2023-01-19T06:52:16.084Z,2.20
2023-01-19T06:54:46.750Z,2.10
2023-01-19T06:57:14.615Z,2.10
2023-01-19T06:59:41.833Z,2.20
2023-01-19T07:02:27.360Z,2.20
2023-01-19T07:04:56.359Z,2.10
2023-01-19T07:07:23.812Z,2.20
2023-01-19T07:09:53.835Z,2.20
2023-01-19T07:12:22.480Z,2.70
2023-01-19T07:14:49.837Z,2.20
2023-01-19T07:17:17.868Z,2.20
2023-01-19T07:19:46.329Z,2.70
2023-01-19T07:22:13.679Z,2.20
2023-01-19T07:24:41.422Z,2.20
2023-01-19T07:27:08.911Z,2.20
2023-01-19T07:29:35.931Z,2.30
2023-01-19T07:32:03.548Z,2.20
2023-01-19T07:34:31.253Z,2.30
2023-01-19T07:36:58.698Z,2.30
2023-01-19T07:39:25.777Z,2.30
2023-01-19T07:41:53.397Z,2.30
2023-01-19T07:44:21.785Z,3.50
2023-01-19T07:46:51.180Z,2.90
2023-01-19T07:49:18.194Z,2.30
2023-01-19T07:51:45.633Z,2.30
2023-01-19T07:54:12.806Z,2.40
2023-01-19T07:56:40.561Z,2.40
2023-01-19T07:59:09.661Z,2.40
2023-01-19T08:01:37.783Z,2.40
2023-01-19T08:04:05.740Z,2.40
2023-01-19T08:06:35.773Z,2.50
2023-01-19T08:09:05.675Z,2.50
2023-01-19T08:11:33.959Z,2.50
2023-01-19T08:14:01.137Z,2.50
2023-01-19T08:16:28.504Z,2.50
2023-01-19T08:18:55.595Z,2.50
2023-01-19T08:21:23.015Z,2.60
2023-01-19T08:23:54.649Z,2.60
2023-01-19T08:26:30.984Z,2.50
2023-01-19T08:29:03.077Z,2.60
2023-01-19T08:31:31.427Z,2.50
2023-01-19T08:33:58.836Z,2.50
2023-01-19T08:36:26.572Z,2.50
2023-01-19T08:38:53.722Z,2.50
2023-01-19T08:41:22.326Z,2.50
2023-01-19T08:43:49.678Z,2.50
2023-01-19T08:46:20.749Z,2.50
2023-01-19T08:48:50.862Z,2.70
2023-01-19T08:51:18.542Z,2.60
2023-01-19T08:53:45.591Z,2.60
2023-01-19T08:56:14.441Z,2.60
2023-01-19T08:58:43.324Z,2.70
2023-01-19T09:01:20.619Z,2.70
2023-01-19T09:03:48.338Z,2.70
2023-01-19T09:06:19.893Z,2.80
2023-01-19T09:08:48.168Z,2.80
2023-01-19T09:11:17.218Z,2.80
2023-01-19T09:13:44.331Z,2.80
2023-01-19T09:16:13.464Z,2.90
2023-01-19T09:18:40.741Z,2.90
2023-01-19T09:21:09.123Z,2.90
2023-01-19T09:23:36.505Z,3.00
2023-01-19T09:26:05.691Z,4.70
2023-01-19T09:28:33.749Z,3.00
2023-01-19T09:31:08.317Z,3.00
2023-01-19T09:33:35.876Z,3.10
2023-01-19T09:36:03.527Z,3.10
2023-01-19T09:38:32.901Z,3.10
2023-01-19T09:41:01.135Z,3.10
2023-01-19T09:43:45.382Z,3.10
2023-01-19T09:46:18.899Z,3.20
2023-01-19T09:48:47.636Z,3.20
2023-01-19T09:51:29.557Z,3.20
2023-01-19T09:54:04.372Z,3.30
2023-01-19T09:56:32.651Z,3.30
2023-01-19T09:59:00.588Z,3.30
2023-01-19T10:01:35.173Z,3.30
2023-01-19T10:04:27.177Z,3.30
2023-01-19T10:07:32.458Z,3.40
2023-01-19T10:10:08.503Z,3.40
2023-01-19T10:12:45.808Z,3.40
2023-01-19T10:15:12.807Z,3.40
2023-01-19T10:17:54.883Z,3.30
2023-01-19T10:20:28.511Z,3.40
2023-01-19T10:22:58.333Z,3.40
2023-01-19T10:25:25.593Z,3.40
2023-01-19T10:27:53.019Z,3.50
2023-01-19T10:30:29.131Z,3.50
2023-01-19T10:32:56.799Z,3.50
2023-01-19T10:35:25.241Z,3.50
2023-01-19T10:37:58.372Z,3.50
2023-01-19T10:40:29.115Z,3.50
2023-01-19T10:42:57.580Z,3.60
2023-01-19T10:45:30.813Z,3.60
2023-01-19T10:48:05.446Z,3.60
2023-01-19T10:50:37.079Z,3.90
2023-01-19T10:53:06.607Z,3.70
2023-01-19T10:55:39.931Z,3.70
2023-01-19T10:58:30.218Z,3.70
2023-01-19T11:01:23.129Z,3.70
2023-01-19T11:03:53.322Z,3.70
2023-01-19T11:06:31.414Z,3.60
2023-01-19T11:09:19.714Z,3.70
2023-01-19T11:11:52.220Z,3.70
2023-01-19T11:14:22.769Z,3.70
2023-01-19T11:16:54.945Z,3.70
2023-01-19T11:19:32.454Z,3.60
2023-01-19T11:22:33.126Z,3.60
2023-01-19T11:25:03.270Z,3.60
2023-01-19T11:27:34.471Z,3.60
2023-01-19T11:30:24.293Z,3.60
2023-01-19T11:32:52.092Z,3.60
2023-01-19T11:35:39.368Z,3.60
2023-01-19T11:38:12.201Z,3.60
2023-01-19T11:40:41.943Z,3.70
2023-01-19T11:43:14.047Z,3.70
2023-01-19T11:45:41.950Z,3.70
2023-01-19T11:48:22.292Z,3.70
2023-01-19T11:50:50.455Z,3.80
2023-01-19T11:53:25.233Z,3.90
2023-01-19T11:56:04.676Z,3.70
2023-01-19T11:58:37.113Z,3.70
2023-01-19T12:01:27.767Z,3.70
2023-01-19T12:04:07.556Z,3.70
2023-01-19T12:06:39.053Z,3.70
2023-01-19T12:09:53.168Z,3.70
2023-01-19T12:12:23.578Z,3.70
2023-01-19T12:15:05.202Z,3.70
2023-01-19T12:17:36.695Z,3.70
2023-01-19T12:20:25.409Z,3.60
2023-01-19T12:23:24.217Z,3.60
2023-01-19T12:26:00.266Z,3.60
2023-01-19T12:28:33.718Z,3.60
2023-01-19T12:31:01.797Z,3.60
2023-01-19T12:33:29.142Z,3.60
2023-01-19T12:36:11.064Z,3.60
2023-01-19T12:38:49.125Z,3.70
2023-01-19T12:41:21.015Z,3.60
2023-01-19T12:44:08.917Z,3.60
2023-01-19T12:46:44.214Z,3.60
2023-01-19T12:49:26.962Z,3.60
2023-01-19T12:52:19.501Z,3.60
2023-01-19T12:54:55.494Z,3.60
2023-01-19T12:57:50.371Z,3.60
2023-01-19T13:00:23.515Z,3.60
2023-01-19T13:02:57.983Z,3.60
2023-01-19T13:05:32.881Z,3.60
2023-01-19T13:08:06.764Z,3.70
2023-01-19T13:11:16.141Z,3.70
2023-01-19T13:14:04.039Z,3.80
2023-01-19T13:16:31.342Z,3.80
2023-01-19T13:19:07.635Z,3.70
2023-01-19T13:21:45.517Z,3.70
2023-01-19T13:24:15.108Z,3.70
2023-01-19T13:26:51.562Z,3.70
2023-01-19T13:29:30.263Z,3.70
2023-01-19T13:32:03.874Z,3.70
2023-01-19T13:34:44.686Z,3.80
2023-01-19T13:37:21.377Z,3.70
2023-01-19T13:39:52.013Z,3.70
2023-01-19T13:42:25.264Z,3.70
2023-01-19T13:44:54.612Z,3.60
2023-01-19T13:47:36.973Z,3.60
2023-01-19T13:50:04.939Z,3.60
2023-01-19T13:52:32.471Z,3.60
2023-01-19T13:55:04.640Z,3.60
2023-01-19T13:57:41.643Z,3.60
2023-01-19T14:00:16.602Z,3.60
2023-01-19T14:03:00.459Z,3.60
2023-01-19T14:05:38.895Z,3.60
2023-01-19T14:08:11.357Z,3.60
2023-01-19T14:10:42.843Z,3.60
2023-01-19T14:13:17.912Z,3.60
2023-01-19T14:15:46.867Z,3.60
2023-01-19T14:18:14.290Z,3.60
2023-01-19T14:20:41.460Z,3.60
2023-01-19T14:23:38.076Z,3.60
2023-01-19T14:26:05.516Z,3.60
2023-01-19T14:28:36.357Z,3.50
2023-01-19T14:31:18.952Z,3.50
2023-01-19T14:33:48.015Z,3.50
2023-01-19T14:36:17.577Z,3.50
2023-01-19T14:38:50.209Z,3.50
2023-01-19T14:41:52.715Z,3.40
2023-01-19T14:44:38.753Z,3.30
2023-01-19T14:47:18.486Z,3.30
2023-01-19T14:49:47.886Z,3.20
2023-01-19T14:52:22.748Z,3.20
2023-01-19T14:54:50.689Z,3.20
2023-01-19T14:57:18.072Z,3.20
2023-01-19T14:59:49.542Z,3.10
2023-01-19T15:02:19.926Z,3.10
2023-01-19T15:04:48.205Z,3.10
2023-01-19T15:07:19.698Z,3.00
2023-01-19T15:09:47.994Z,3.00
2023-01-19T15:12:17.598Z,3.00
2023-01-19T15:14:45.761Z,3.00
2023-01-19T15:17:25.261Z,3.00
2023-01-19T15:19:56.468Z,2.90
2023-01-19T15:22:27.308Z,2.90
2023-01-19T15:24:57.686Z,2.90
2023-01-19T15:27:26.215Z,2.90
2023-01-19T15:29:54.343Z,2.80
2023-01-19T15:32:21.514Z,2.80
2023-01-19T15:34:49.097Z,2.80
2023-01-19T15:37:16.159Z,2.80
2023-01-19T15:39:43.496Z,2.70
2023-01-19T15:42:14.258Z,2.70
2023-01-19T15:44:41.525Z,2.70
2023-01-19T15:47:10.432Z,2.70
2023-01-19T15:49:38.129Z,2.70
2023-01-19T15:52:11.554Z,2.60
2023-01-19T15:54:38.929Z,2.60
2023-01-19T15:57:06.055Z,2.80
2023-01-19T15:59:33.533Z,2.60
2023-01-19T16:02:00.606Z,3.30
2023-01-19T16:04:27.986Z,2.50
2023-01-19T16:06:55.044Z,2.50
2023-01-19T16:09:22.543Z,2.50
2023-01-19T16:11:49.563Z,2.50
2023-01-19T16:14:17.696Z,2.60
2023-01-19T16:16:46.186Z,2.60
2023-01-19T16:19:16.817Z,2.60
2023-01-19T16:21:44.255Z,2.60
2023-01-19T16:24:11.821Z,2.60
2023-01-19T16:26:39.023Z,2.60
2023-01-19T16:29:09.916Z,2.60
2023-01-19T16:31:38.618Z,2.60
2023-01-19T16:34:06.216Z,2.60
2023-01-19T16:36:35.905Z,2.60
2023-01-19T16:39:14.363Z,2.60
2023-01-19T16:41:41.850Z,2.60
2023-01-19T16:44:11.863Z,2.50
2023-01-19T16:46:41.559Z,2.60
2023-01-19T16:49:20.182Z,2.50
2023-01-19T16:51:48.672Z,2.50
2023-01-19T16:54:19.495Z,2.50
2023-01-19T16:56:46.926Z,2.50
2023-01-19T16:59:16.942Z,2.40
2023-01-19T17:01:45.146Z,3.00
2023-01-19T17:04:13.192Z,2.40
2023-01-19T17:06:40.636Z,2.40
2023-01-19T17:09:11.640Z,2.40
2023-01-19T17:11:40.303Z,2.40
2023-01-19T17:14:14.277Z,2.40
2023-01-19T17:16:42.055Z,2.50
2023-01-19T17:19:14.303Z,2.40
2023-01-19T17:21:43.399Z,2.40
2023-01-19T17:24:10.895Z,2.40
2023-01-19T17:26:38.222Z,2.40
2023-01-19T17:29:08.354Z,3.20
2023-01-19T17:31:36.600Z,2.40
2023-01-19T17:34:04.128Z,2.30
2023-01-19T17:36:32.559Z,2.30
2023-01-19T17:39:04.318Z,2.30
2023-01-19T17:41:35.011Z,2.30
2023-01-19T17:44:04.379Z,2.30
2023-01-19T17:46:34.399Z,2.20
2023-01-19T17:49:03.580Z,2.20
2023-01-19T17:51:31.635Z,2.20
2023-01-19T17:53:59.563Z,2.20
2023-01-19T17:56:30.277Z,2.20
2023-01-19T17:58:59.151Z,2.20
2023-01-19T18:01:32.677Z,2.20
2023-01-19T18:04:02.600Z,2.20
2023-01-19T18:06:30.266Z,2.20
2023-01-19T18:08:59.405Z,2.30
2023-01-19T18:11:27.274Z,2.30
2023-01-19T18:13:54.947Z,2.30
2023-01-19T18:16:25.513Z,2.20
2023-01-19T18:18:54.727Z,2.20
2023-01-19T18:21:38.133Z,2.20
2023-01-19T18:24:06.093Z,2.20
2023-01-19T18:26:35.197Z,2.10
2023-01-19T18:29:02.713Z,2.10
2023-01-19T18:31:30.059Z,2.10
2023-01-19T18:33:57.747Z,2.10
2023-01-19T18:36:24.757Z,2.10
2023-01-19T18:38:52.561Z,2.10
2023-01-19T18:41:21.366Z,2.20
2023-01-19T18:43:49.248Z,2.20
2023-01-19T18:46:16.822Z,2.20
2023-01-19T18:48:44.489Z,2.30
2023-01-19T18:51:14.445Z,2.90
2023-01-19T18:53:42.777Z,2.20
2023-01-19T18:56:12.914Z,2.30
2023-01-19T18:58:40.743Z,2.30
2023-01-19T19:01:17.535Z,2.20
2023-01-19T19:03:45.228Z,2.30
2023-01-19T19:06:12.440Z,2.30
2023-01-19T19:08:40.194Z,2.30
2023-01-19T19:11:08.260Z,2.30
2023-01-19T19:13:36.021Z,2.30
2023-01-19T19:16:07.850Z,2.30
2023-01-19T19:18:37.065Z,2.30
2023-01-19T19:21:08.905Z,2.30
2023-01-19T19:23:36.911Z,2.30
2023-01-19T19:26:09.583Z,2.30
2023-01-19T19:28:38.531Z,2.30
2023-01-19T19:31:07.134Z,2.30
2023-01-19T19:33:35.480Z,2.30
2023-01-19T19:36:02.587Z,3.20
2023-01-19T19:38:30.798Z,2.30
2023-01-19T19:40:58.741Z,2.40
2023-01-19T19:43:31.249Z,2.40
2023-01-19T19:46:05.861Z,2.40
2023-01-19T19:48:34.581Z,2.40
2023-01-19T19:51:25.755Z,2.40
2023-01-19T19:53:54.614Z,2.40
2023-01-19T19:56:23.514Z,2.40
2023-01-19T19:58:52.131Z,2.40
2023-01-19T20:01:24.622Z,2.40
2023-01-19T20:03:53.500Z,2.40
2023-01-19T20:06:23.301Z,2.40
2023-01-19T20:08:52.782Z,2.50
2023-01-19T20:11:22.426Z,3.10
2023-01-19T20:13:50.844Z,2.30
2023-01-19T20:16:20.261Z,2.40
2023-01-19T20:18:51.470Z,2.30
2023-01-19T20:21:21.626Z,2.40
2023-01-19T20:23:50.682Z,2.30
2023-01-19T20:26:21.331Z,2.30
2023-01-19T20:28:48.969Z,2.40
2023-01-19T20:31:22.932Z,2.30
2023-01-19T20:33:56.249Z,2.30
2023-01-19T20:36:24.975Z,2.30
2023-01-19T20:38:54.767Z,2.20
2023-01-19T20:41:23.188Z,2.20
2023-01-19T20:43:50.996Z,2.20
2023-01-19T20:46:18.330Z,2.20
2023-01-19T20:48:50.899Z,2.20
2023-01-19T20:51:18.944Z,2.20
2023-01-19T20:53:49.900Z,2.20
2023-01-19T20:56:17.074Z,2.20
2023-01-19T20:58:44.526Z,2.60
2023-01-19T21:01:30.021Z,2.30
2023-01-19T21:03:57.519Z,2.20
2023-01-19T21:06:25.208Z,2.10
2023-01-19T21:08:52.640Z,2.20
2023-01-19T21:11:21.385Z,2.10
2023-01-19T21:13:50.531Z,2.10
2023-01-19T21:16:17.775Z,2.20
2023-01-19T21:18:45.212Z,2.10
2023-01-19T21:21:28.526Z,2.10
2023-01-19T21:23:58.667Z,2.10
2023-01-19T21:26:25.834Z,2.10
2023-01-19T21:28:53.238Z,2.10
2023-01-19T21:31:22.698Z,2.10
2023-01-19T21:33:53.530Z,2.10
2023-01-19T21:36:21.379Z,2.10
2023-01-19T21:38:48.936Z,2.10
2023-01-19T21:41:16.408Z,2.10
2023-01-19T21:43:44.187Z,2.10
2023-01-19T21:46:21.682Z,2.10
2023-01-19T21:48:49.381Z,2.10
2023-01-19T21:51:16.663Z,2.10
2023-01-19T21:53:44.168Z,2.10
2023-01-19T21:56:11.530Z,2.10
2023-01-19T21:58:41.795Z,2.10
2023-01-19T22:01:10.950Z,2.00
2023-01-19T22:03:38.520Z,2.10
2023-01-19T22:06:07.891Z,2.00
2023-01-19T22:08:36.285Z,2.10
2023-01-19T22:11:05.506Z,2.00
2023-01-19T22:13:34.921Z,2.00
2023-01-19T22:16:10.535Z,2.10
2023-01-19T22:18:39.267Z,2.10
2023-01-19T22:21:17.077Z,2.00
2023-01-19T22:23:48.029Z,2.10
2023-01-19T22:26:15.478Z,2.60
2023-01-19T22:28:43.068Z,2.10
2023-01-19T22:31:18.381Z,2.10
2023-01-19T22:33:46.340Z,2.10
2023-01-19T22:36:22.218Z,2.40
2023-01-19T22:39:01.297Z,2.10
2023-01-19T22:41:36.481Z,2.00
2023-01-19T22:44:07.171Z,2.10
2023-01-19T22:46:36.041Z,2.00
2023-01-19T22:49:04.961Z,2.00
2023-01-19T22:51:32.914Z,2.00
2023-01-19T22:54:01.533Z,2.00
2023-01-19T22:56:31.103Z,2.00
2023-01-19T22:58:59.346Z,2.00
2023-01-19T23:01:29.197Z,2.00
2023-01-19T23:03:57.006Z,2.00
2023-01-19T23:06:28.774Z,2.00
2023-01-19T23:08:58.034Z,2.00
2023-01-19T23:11:27.852Z,2.00
2023-01-19T23:13:55.669Z,2.20
2023-01-19T23:16:22.664Z,2.00
2023-01-19T23:18:53.385Z,2.00
2023-01-19T23:21:23.163Z,2.00
2023-01-19T23:23:54.982Z,2.10
2023-01-19T23:26:22.879Z,2.00
2023-01-19T23:28:56.025Z,2.00
2023-01-19T23:31:24.695Z,2.00
2023-01-19T23:33:57.212Z,2.00
2023-01-19T23:36:27.154Z,2.00
2023-01-19T23:38:57.342Z,2.00
2023-01-19T23:41:25.586Z,2.00
2023-01-19T23:43:52.958Z,2.00
2023-01-19T23:46:20.599Z,2.00
2023-01-19T23:48:48.224Z,2.00
2023-01-19T23:51:28.010Z,2.00
2023-01-19T23:53:56.693Z,2.00
2023-01-19T23:56:35.740Z,2.00
2023-01-19T23:59:08.753Z,2.00
